TimeEET,TemperatureF,Dew PointF,Humidity,Sea Level PressureIn,VisibilityMPH,Wind Direction,Wind SpeedMPH,Gust SpeedMPH,PrecipitationIn,Events,Conditions,WindDirDegrees,DateUTC
12:00 AM,69.8,64.4,83,30.01,6.2,North,4.6,-,N/A,,Partly Cloudy,10,2013-11-11 22:00:00
1:00 AM,69.8,64.4,83,29.98,-9999.0,NNE,4.6,-,N/A,,Clear,30,2013-11-11 23:00:00
2:00 AM,68,64,84,30.00,6,NNE,3.5,,,,,30,2013-11-12 00:00:00
2:00 AM,68.0,64.4,88,29.98,-9999.0,NNE,3.5,-,N/A,,Clear,30,2013-11-12 00:00:00
3:00 AM,68.0,64.4,88,29.98,-9999.0,NNE,3.5,-,N/A,,Clear,20,2013-11-12 01:00:00
4:00 AM,66.2,64.4,94,29.98,-9999.0,North,4.6,-,N/A,,Clear,10,2013-11-12 02:00:00
5:00 AM,68.0,64.4,88,29.98,-9999.0,NNE,2.3,-,N/A,,Clear,20,2013-11-12 03:00:00
6:00 AM,66.2,62.6,88,29.98,-9999.0,North,2.3,-,N/A,,Clear,360,2013-11-12 04:00:00
7:00 AM,62.6,60.8,94,29.98,3.7,North,2.3,-,N/A,,Unknown,360,2013-11-12 05:00:00
8:00 AM,71,66,81,30.01,4,North,3.5,,,,Mist,10,2013-11-12 06:00:00
8:00 AM,71.6,66.2,83,30.01,3.7,North,3.5,-,N/A,,Scattered Clouds,10,2013-11-12 06:00:00
9:00 AM,73.4,66.2,78,30.01,3.7,North,4.6,-,N/A,,Scattered Clouds,350,2013-11-12 07:00:00
10:00 AM,75.2,66.2,73,30.01,6.2,NNE,5.8,-,N/A,,Scattered Clouds,30,2013-11-12 08:00:00
11:00 AM,77,66,61,30.02,6,North,8.1,,,,Partly Cloudy,0,2013-11-12 09:00:00
11:00 AM,77.0,66.2,69,30.01,6.2,North,8.1,-,N/A,,Scattered Clouds,360,2013-11-12 09:00:00
12:00 PM,77.0,66.2,69,30.01,6.2,North,8.1,-,N/A,,Scattered Clouds,360,2013-11-12 10:00:00
1:00 PM,78.8,69.8,74,29.98,6.2,North,9.2,-,N/A,,Scattered Clouds,350,2013-11-12 11:00:00
2:00 PM,78,67,61,29.99,6,North,8.1,,,,Partly Cloudy,350,2013-11-12 12:00:00
2:00 PM,77.0,68.0,74,29.98,6.2,North,8.1,-,N/A,,Scattered Clouds,350,2013-11-12 12:00:00
3:00 PM,77.0,68.0,74,29.98,6.2,North,8.1,-,N/A,,Scattered Clouds,360,2013-11-12 13:00:00
4:00 PM,75.2,68.0,78,29.98,6.2,North,10.4,-,N/A,,Scattered Clouds,360,2013-11-12 14:00:00
5:00 PM,73,67,77,29.98,6,North,9.2,,,,Partly Cloudy,0,2013-11-12 15:00:00
5:00 PM,73.4,68.0,83,29.98,6.2,North,8.1,-,N/A,,Scattered Clouds,360,2013-11-12 15:00:00
6:00 PM,73.4,68.0,83,29.98,6.2,North,5.8,-,N/A,,Scattered Clouds,10,2013-11-12 16:00:00
7:00 PM,71.6,68.0,88,29.98,6.2,NNE,5.8,-,N/A,,Scattered Clouds,30,2013-11-12 17:00:00
8:00 PM,71,67,84,30.00,6,NE,5.8,,,,Scattered Clouds,40,2013-11-12 18:00:00
8:00 PM,71.6,68.0,88,29.98,6.2,NE,5.8,-,N/A,,Partly Cloudy,40,2013-11-12 18:00:00
9:00 PM,71.6,68.0,88,30.01,6.2,NNE,3.5,-,N/A,,Partly Cloudy,30,2013-11-12 19:00:00
10:00 PM,69.8,66.2,88,30.01,6.2,NE,3.5,-,N/A,,Partly Cloudy,50,2013-11-12 20:00:00
11:00 PM,70,66,85,30.01,6,NE,3.5,,,,Scattered Clouds,40,2013-11-12 21:00:00
11:00 PM,69.8,66.2,88,30.01,6.2,NE,3.5,-,N/A,,Partly Cloudy,40,2013-11-12 21:00:00